createdAt,value
2018-04-15T00:00:58.012Z,8.90
2018-04-15T00:03:25.576Z,11.67
2018-04-15T00:05:53.147Z,11.93
2018-04-15T00:08:20.708Z,13.53
2018-04-15T00:10:48.288Z,7.40
2018-04-15T00:13:15.840Z,9.67
2018-04-15T00:15:44.169Z,13.83
2018-04-15T00:18:11.730Z,11.00
2018-04-15T00:20:39.296Z,13.80
2018-04-15T00:23:06.884Z,12.53
2018-04-15T00:25:34.444Z,12.27
2018-04-15T00:28:02.024Z,11.53
2018-04-15T00:30:29.580Z,9.93
2018-04-15T00:32:57.905Z,10.67
2018-04-15T00:35:26.260Z,11.40
2018-04-15T00:37:53.821Z,10.37
2018-04-15T00:40:21.398Z,13.17
2018-04-15T00:42:48.985Z,16.77
2018-04-15T00:45:16.536Z,12.37
2018-04-15T00:47:44.121Z,11.07
2018-04-15T00:50:11.672Z,15.93
2018-04-15T00:52:39.232Z,9.00
2018-04-15T00:55:06.804Z,14.13
2018-04-15T00:57:34.380Z,9.97
2018-04-15T01:00:02.748Z,10.23
2018-04-15T01:02:31.068Z,9.23
2018-04-15T01:04:58.628Z,9.50
2018-04-15T01:07:26.189Z,10.07
2018-04-15T01:09:53.767Z,11.87
2018-04-15T01:12:21.352Z,12.60
2018-04-15T01:14:48.904Z,12.27
2018-04-15T01:17:16.456Z,11.50
2018-04-15T01:19:44.034Z,11.00
2018-04-15T01:22:11.612Z,12.20
2018-04-15T01:24:39.176Z,12.90
2018-04-15T01:27:06.764Z,10.40
2018-04-15T01:29:34.328Z,7.93
2018-04-15T01:32:01.884Z,13.93
2018-04-15T01:34:29.449Z,11.70
2018-04-15T01:36:57.008Z,10.97
2018-04-15T01:39:24.566Z,12.83
2018-04-15T01:41:52.126Z,12.63
2018-04-15T01:44:19.685Z,10.37
2018-04-15T01:46:47.278Z,10.93
2018-04-15T01:49:14.844Z,10.33
2018-04-15T01:51:42.409Z,8.50
2018-04-15T01:54:10.733Z,8.50
2018-04-15T01:56:38.299Z,11.90
2018-04-15T01:59:05.872Z,8.87
2018-04-15T02:01:33.428Z,8.63
2018-04-15T02:04:00.995Z,12.67
2018-04-15T02:06:28.548Z,9.07
2018-04-15T02:08:56.112Z,9.43
2018-04-15T02:11:23.716Z,10.50
2018-04-15T02:13:51.349Z,12.27
2018-04-15T02:16:18.912Z,10.10
2018-04-15T02:18:46.478Z,11.07
2018-04-15T02:21:14.041Z,10.70
2018-04-15T02:23:42.382Z,9.63
2018-04-15T02:26:09.960Z,11.67
2018-04-15T02:28:37.520Z,9.70
2018-04-15T02:31:05.088Z,11.03
2018-04-15T02:33:33.414Z,14.97
2018-04-15T02:36:01.009Z,10.40
2018-04-15T02:38:28.579Z,10.77
2018-04-15T02:40:56.136Z,13.63
2018-04-15T02:43:23.700Z,11.13
2018-04-15T02:45:51.256Z,11.07
2018-04-15T02:48:18.849Z,11.33
2018-04-15T02:50:46.405Z,11.50
2018-04-15T02:53:13.969Z,11.47
2018-04-15T02:55:41.524Z,9.70
2018-04-15T02:58:09.089Z,9.57
2018-04-15T03:00:36.677Z,13.07
2018-04-15T03:03:04.236Z,7.57
2018-04-15T03:05:31.796Z,11.50
2018-04-15T03:07:59.357Z,11.63
2018-04-15T03:10:26.917Z,8.23
2018-04-15T03:12:54.508Z,10.33
2018-04-15T03:15:22.068Z,11.37
2018-04-15T03:17:49.624Z,11.67
2018-04-15T03:20:17.188Z,12.17
2018-04-15T03:22:44.744Z,9.23
2018-04-15T03:25:12.334Z,10.77
2018-04-15T03:27:39.902Z,12.63
2018-04-15T03:30:07.462Z,9.87
2018-04-15T03:32:35.021Z,12.03
2018-04-15T03:35:02.584Z,11.23
2018-04-15T03:37:30.181Z,9.40
2018-04-15T03:39:57.749Z,13.67
2018-04-15T03:42:25.349Z,11.00
2018-04-15T03:44:53.669Z,14.97
2018-04-15T03:47:21.230Z,12.77
2018-04-15T03:49:48.816Z,13.93
2018-04-15T03:52:16.365Z,9.17
2018-04-15T03:54:43.936Z,9.50
2018-04-15T03:57:11.492Z,11.47
2018-04-15T03:59:39.054Z,12.67
2018-04-15T04:02:06.662Z,9.47
2018-04-15T04:04:34.212Z,7.93
2018-04-15T04:07:01.776Z,10.83
2018-04-15T04:09:29.346Z,10.93
2018-04-15T04:11:56.947Z,12.90
2018-04-15T04:14:24.520Z,8.43
2018-04-15T04:16:52.088Z,17.67
2018-04-15T04:22:36.500Z,9.87
2018-04-15T04:28:06.730Z,9.73
2018-04-15T04:30:34.308Z,10.70
2018-04-15T04:33:01.865Z,8.77
2018-04-15T04:35:29.424Z,11.90
2018-04-15T04:37:56.980Z,11.37
2018-04-15T04:40:24.539Z,7.30
2018-04-15T04:42:52.113Z,11.67
2018-04-15T04:45:19.672Z,11.50
2018-04-15T04:47:47.234Z,9.30
2018-04-15T04:50:14.792Z,11.03
2018-04-15T04:52:42.360Z,10.63
2018-04-15T04:55:10.707Z,9.07
2018-04-15T04:57:38.264Z,10.80
2018-04-15T05:00:05.824Z,12.80
2018-04-15T05:02:33.376Z,10.33
2018-04-15T05:05:00.940Z,8.97
2018-04-15T05:07:28.531Z,11.23
2018-04-15T05:09:56.096Z,9.97
2018-04-15T05:12:24.411Z,8.43
2018-04-15T05:14:51.985Z,8.57
2018-04-15T05:17:19.552Z,9.57
2018-04-15T05:19:47.115Z,10.93
2018-04-15T05:22:14.704Z,11.33
2018-04-15T05:24:42.299Z,9.50
2018-04-15T05:27:09.827Z,9.77
2018-04-15T05:29:37.385Z,9.83
2018-04-15T05:32:04.931Z,9.37
2018-04-15T05:34:32.480Z,11.33
2018-04-15T05:37:00.033Z,10.67
2018-04-15T05:39:27.585Z,11.20
2018-04-15T05:41:55.132Z,8.47
2018-04-15T05:44:22.680Z,10.20
2018-04-15T05:46:50.237Z,10.13
2018-04-15T05:49:17.807Z,9.17
2018-04-15T05:51:45.352Z,9.80
2018-04-15T05:54:12.900Z,11.07
2018-04-15T05:56:40.452Z,15.83
2018-04-15T05:59:08.001Z,10.47
2018-04-15T06:01:35.591Z,10.10
2018-04-15T06:04:03.140Z,8.83
2018-04-15T06:06:30.692Z,9.30
2018-04-15T06:08:58.240Z,11.00
2018-04-15T06:11:25.799Z,9.67
2018-04-15T06:13:53.952Z,10.87
2018-04-15T06:16:21.505Z,13.07
2018-04-15T06:18:49.076Z,12.67
2018-04-15T06:21:16.630Z,13.00
2018-04-15T06:23:44.176Z,9.60
2018-04-15T06:26:11.752Z,11.27
2018-04-15T06:28:39.295Z,8.63
2018-04-15T06:31:06.846Z,9.90
2018-04-15T06:33:34.397Z,7.33
2018-04-15T06:36:01.944Z,8.83
2018-04-15T06:38:30.281Z,9.87
2018-04-15T06:40:57.829Z,14.13
2018-04-15T06:43:25.379Z,9.67
2018-04-15T06:45:52.931Z,8.40
2018-04-15T06:48:20.481Z,9.57
2018-04-15T06:50:48.072Z,10.87
2018-04-15T06:53:15.620Z,11.30
2018-04-15T06:55:43.181Z,14.50
2018-04-15T06:58:10.739Z,11.17
2018-04-15T07:00:38.289Z,11.80
2018-04-15T07:03:05.868Z,13.43
2018-04-15T07:05:33.420Z,10.67
2018-04-15T07:08:00.980Z,10.53
2018-04-15T07:10:28.538Z,8.67
2018-04-15T07:12:56.096Z,8.57
2018-04-15T07:15:23.664Z,8.97
2018-04-15T07:17:51.216Z,12.57
2018-04-15T07:20:18.766Z,12.23
2018-04-15T07:22:46.327Z,9.90
2018-04-15T07:25:13.877Z,9.83
2018-04-15T07:27:41.461Z,12.80
2018-04-15T07:30:09.012Z,13.47
2018-04-15T07:32:36.561Z,10.43
2018-04-15T07:35:04.117Z,10.57
2018-04-15T07:37:31.676Z,10.23
2018-04-15T07:39:59.248Z,8.13
2018-04-15T07:42:26.806Z,11.00
2018-04-15T07:44:54.353Z,9.37
2018-04-15T07:47:21.905Z,9.97
2018-04-15T07:49:49.452Z,10.23
2018-04-15T07:52:17.033Z,10.97
2018-04-15T07:54:44.590Z,11.50
2018-04-15T07:57:12.140Z,10.97
2018-04-15T07:59:39.710Z,11.77
2018-04-15T08:02:07.277Z,12.00
2018-04-15T08:04:34.848Z,9.57
2018-04-15T08:07:02.400Z,14.40
2018-04-15T08:09:29.960Z,11.40
2018-04-15T08:11:57.509Z,12.83
2018-04-15T08:14:25.069Z,12.13
2018-04-15T08:16:52.661Z,15.27
2018-04-15T08:19:20.212Z,12.60
2018-04-15T08:21:47.772Z,14.90
2018-04-15T08:24:15.327Z,12.97
2018-04-15T08:26:42.888Z,15.87
2018-04-15T08:29:10.471Z,13.27
2018-04-15T08:31:38.025Z,15.63
2018-04-15T08:34:05.576Z,11.37
2018-04-15T08:36:33.132Z,15.30
2018-04-15T08:39:00.684Z,13.73
2018-04-15T08:41:28.282Z,16.47
2018-04-15T08:43:55.828Z,15.90
2018-04-15T08:46:23.380Z,16.30
2018-04-15T08:48:50.937Z,13.63
2018-04-15T08:51:18.492Z,16.73
2018-04-15T08:53:46.081Z,15.77
2018-04-15T08:56:13.644Z,15.80
2018-04-15T08:58:41.196Z,15.93
2018-04-15T09:01:08.754Z,15.37
2018-04-15T09:03:36.320Z,19.53
2018-04-15T09:06:03.896Z,17.47
2018-04-15T09:08:31.445Z,14.63
2018-04-15T09:10:59.004Z,14.40
2018-04-15T09:13:26.729Z,15.27
2018-04-15T09:15:54.292Z,14.73
2018-04-15T09:18:21.868Z,15.33
2018-04-15T09:20:49.415Z,18.20
2018-04-15T09:23:17.030Z,18.07
2018-04-15T09:25:44.556Z,12.67
2018-04-15T09:28:12.108Z,17.50
2018-04-15T09:30:45.367Z,15.13
2018-04-15T09:33:12.976Z,17.97
2018-04-15T09:35:40.571Z,14.80
2018-04-15T09:38:08.113Z,17.90
2018-04-15T09:40:35.672Z,16.33
2018-04-15T09:43:03.549Z,18.30
2018-04-15T09:45:31.106Z,23.47
2018-04-15T09:47:58.848Z,14.83
2018-04-15T09:50:26.440Z,17.37
2018-04-15T09:52:54.032Z,20.10
2018-04-15T09:55:21.622Z,23.97
2018-04-15T09:57:49.177Z,23.10
2018-04-15T10:00:19.556Z,18.63
2018-04-15T10:02:47.108Z,20.30
2018-04-15T10:05:15.433Z,21.23
2018-04-15T10:07:43.022Z,21.50
2018-04-15T10:10:10.579Z,23.00
2018-04-15T10:12:38.140Z,20.50
2018-04-15T10:15:05.698Z,18.93
2018-04-15T10:17:33.256Z,17.73
2018-04-15T10:20:00.925Z,20.17
2018-04-15T10:22:28.476Z,21.03
2018-04-15T10:24:56.033Z,19.37
2018-04-15T10:27:23.588Z,22.20
2018-04-15T10:29:51.152Z,23.53
2018-04-15T10:32:18.740Z,18.87
2018-04-15T10:34:46.325Z,20.57
2018-04-15T10:37:14.649Z,24.30
2018-04-15T10:39:42.216Z,20.43
2018-04-15T10:42:09.768Z,20.37
2018-04-15T10:44:37.340Z,19.80
2018-04-15T10:47:04.892Z,23.93
2018-04-15T10:49:32.459Z,22.53
2018-04-15T10:52:00.029Z,21.77
2018-04-15T10:54:27.591Z,19.87
2018-04-15T10:56:55.172Z,25.10
2018-04-15T10:59:22.732Z,21.63
2018-04-15T11:01:51.063Z,22.57
2018-04-15T11:04:18.628Z,23.43
2018-04-15T11:06:46.188Z,21.60
2018-04-15T11:09:13.773Z,24.03
2018-04-15T11:11:42.097Z,27.13
2018-04-15T11:14:09.710Z,20.90
2018-04-15T11:16:37.272Z,20.43
2018-04-15T11:19:04.831Z,26.67
2018-04-15T11:21:33.160Z,21.03
2018-04-15T11:24:00.721Z,23.57
2018-04-15T11:26:28.316Z,25.50
2018-04-15T11:28:55.894Z,22.50
2018-04-15T11:31:23.469Z,23.53
2018-04-15T11:33:51.025Z,21.67
2018-04-15T11:36:18.590Z,22.43
2018-04-15T11:38:46.172Z,22.07
2018-04-15T11:41:13.732Z,24.20
2018-04-15T11:43:41.286Z,21.80
2018-04-15T11:46:08.875Z,24.50
2018-04-15T11:48:36.444Z,22.87
2018-04-15T11:51:04.788Z,24.27
2018-04-15T11:53:32.372Z,21.17
2018-04-15T11:56:00.700Z,24.40
2018-04-15T11:58:28.312Z,23.07
2018-04-15T12:00:55.836Z,22.00
2018-04-15T12:03:23.392Z,24.40
2018-04-15T12:05:50.952Z,23.23
2018-04-15T12:08:20.016Z,25.87
2018-04-15T12:10:47.572Z,23.30
2018-04-15T12:13:15.151Z,20.87
2018-04-15T12:15:42.737Z,20.97
2018-04-15T12:18:10.336Z,23.27
2018-04-15T12:20:37.932Z,26.70
2018-04-15T12:23:05.491Z,27.57
2018-04-15T12:25:33.072Z,27.53
2018-04-15T12:28:00.624Z,27.03
2018-04-15T12:30:28.188Z,24.00
2018-04-15T12:32:55.749Z,24.17
2018-04-15T12:35:24.076Z,23.63
2018-04-15T12:37:51.657Z,23.80
2018-04-15T12:40:19.216Z,17.20
2018-04-15T12:42:46.777Z,19.40
2018-04-15T12:45:14.336Z,20.00
2018-04-15T12:47:41.901Z,18.37
2018-04-15T12:50:09.486Z,16.23
2018-04-15T12:52:37.052Z,18.30
2018-04-15T12:55:04.613Z,19.37
2018-04-15T12:57:32.169Z,17.73
2018-04-15T12:59:59.736Z,18.03
2018-04-15T13:02:27.320Z,18.00
2018-04-15T13:04:54.876Z,23.27
2018-04-15T13:07:22.436Z,18.10
2018-04-15T13:09:49.992Z,16.23
2018-04-15T13:12:17.545Z,13.43
2018-04-15T13:14:45.124Z,12.20
2018-04-15T13:17:12.681Z,14.77
2018-04-15T13:19:41.036Z,11.30
2018-04-15T13:22:08.839Z,11.53
2018-04-15T13:24:36.402Z,9.87
2018-04-15T13:27:03.983Z,10.33
2018-04-15T13:29:32.316Z,10.40
2018-04-15T13:31:59.980Z,9.00
2018-04-15T13:34:27.532Z,7.50
2018-04-15T13:36:55.853Z,9.73
2018-04-15T13:39:24.208Z,12.10
2018-04-15T13:41:51.777Z,8.73
2018-04-15T13:44:19.330Z,9.03
2018-04-15T13:46:47.696Z,11.53
2018-04-15T13:49:15.248Z,8.93
2018-04-15T13:51:43.002Z,12.30
2018-04-15T13:54:11.358Z,29.77
2018-04-15T13:56:38.932Z,37.77
2018-04-15T13:59:06.497Z,23.77
2018-04-15T14:01:34.065Z,13.00
2018-04-15T14:04:01.710Z,12.07
2018-04-15T14:06:29.268Z,10.23
2018-04-15T14:08:56.823Z,16.97
2018-04-15T14:11:24.389Z,23.37
2018-04-15T14:13:51.970Z,33.00
2018-04-15T14:16:20.312Z,36.27
2018-04-15T14:18:47.901Z,16.77
2018-04-15T14:21:15.516Z,19.57
2018-04-15T14:23:43.071Z,23.43
2018-04-15T14:26:10.627Z,40.67
2018-04-15T14:28:38.296Z,11.03
2018-04-15T14:31:05.864Z,9.03
2018-04-15T14:33:33.411Z,8.03
2018-04-15T14:36:00.974Z,11.27
2018-04-15T14:38:28.540Z,8.03
2018-04-15T14:40:56.152Z,8.67
2018-04-15T14:43:23.837Z,7.93
2018-04-15T14:45:51.603Z,6.00
2018-04-15T14:48:19.157Z,7.90
2018-04-15T14:50:46.716Z,6.23
2018-04-15T14:53:14.300Z,8.33
2018-04-15T14:55:41.888Z,8.30
2018-04-15T14:58:10.216Z,8.63
2018-04-15T15:00:37.780Z,6.33
2018-04-15T15:03:05.336Z,7.77
2018-04-15T15:05:32.914Z,7.60
2018-04-15T15:08:00.495Z,9.03
2018-04-15T15:10:28.064Z,8.80
2018-04-15T15:12:56.384Z,8.77
2018-04-15T15:15:23.940Z,10.20
2018-04-15T15:17:51.517Z,8.33
2018-04-15T15:20:19.072Z,10.10
2018-04-15T15:22:46.697Z,11.47
2018-04-15T15:25:14.212Z,11.97
2018-04-15T15:27:41.770Z,10.73
2018-04-15T15:30:09.336Z,7.90
2018-04-15T15:32:36.908Z,9.03
2018-04-15T15:35:04.460Z,12.03
2018-04-15T15:37:32.780Z,8.90
2018-04-15T15:40:00.337Z,9.57
2018-04-15T15:42:27.932Z,10.13
2018-04-15T15:44:55.485Z,7.20
2018-04-15T15:47:23.055Z,10.87
2018-04-15T15:49:51.662Z,7.73
2018-04-15T15:52:19.220Z,9.97
2018-04-15T15:54:46.807Z,10.13
2018-04-15T15:57:14.356Z,9.93
2018-04-15T15:59:41.905Z,8.13
2018-04-15T16:02:09.468Z,10.67
2018-04-15T16:04:37.022Z,8.20
2018-04-15T16:07:04.604Z,10.67
2018-04-15T16:09:32.160Z,12.60
2018-04-15T16:11:59.712Z,15.80
2018-04-15T16:14:27.272Z,25.07
2018-04-15T16:16:54.828Z,11.77
2018-04-15T16:19:22.400Z,9.07
2018-04-15T16:21:49.948Z,10.50
2018-04-15T16:24:17.506Z,10.10
2018-04-15T16:26:45.061Z,8.43
2018-04-15T16:29:12.613Z,9.23
2018-04-15T16:31:40.196Z,9.97
2018-04-15T16:34:07.738Z,9.73
2018-04-15T16:36:35.328Z,10.50
2018-04-15T16:39:02.888Z,12.93
2018-04-15T16:41:30.432Z,9.20
2018-04-15T16:43:58.025Z,10.60
2018-04-15T16:46:25.586Z,10.03
2018-04-15T16:48:53.916Z,12.63
2018-04-15T16:51:21.470Z,10.70
2018-04-15T16:53:49.034Z,12.43
2018-04-15T16:56:16.625Z,9.13
2018-04-15T16:58:44.171Z,12.43
2018-04-15T17:01:11.748Z,11.37
2018-04-15T17:03:39.307Z,8.30
2018-04-15T17:06:07.626Z,11.03
2018-04-15T17:08:35.208Z,8.10
2018-04-15T17:11:02.824Z,7.60
2018-04-15T17:13:30.344Z,8.57
2018-04-15T17:15:57.928Z,9.27
2018-04-15T17:18:25.476Z,8.73
2018-04-15T17:20:53.088Z,8.77
2018-04-15T17:23:20.668Z,8.77
2018-04-15T17:25:48.219Z,9.27
2018-04-15T17:28:15.788Z,9.07
2018-04-15T17:30:43.336Z,9.80
2018-04-15T17:33:10.889Z,11.73
2018-04-15T17:35:38.445Z,10.03
2018-04-15T17:38:06.047Z,11.97
2018-04-15T17:40:33.629Z,11.80
2018-04-15T17:43:01.176Z,13.17
2018-04-15T17:45:28.736Z,13.43
2018-04-15T17:47:56.516Z,11.07
2018-04-15T17:50:24.086Z,12.43
2018-04-15T17:52:51.699Z,12.40
2018-04-15T17:55:19.241Z,12.13
2018-04-15T17:57:47.566Z,17.03
2018-04-15T18:00:15.130Z,17.83
2018-04-15T18:02:42.723Z,18.23
2018-04-15T18:05:10.289Z,18.90
2018-04-15T18:07:37.868Z,20.57
2018-04-15T18:10:05.436Z,21.80
2018-04-15T18:12:32.997Z,21.57
2018-04-15T18:15:01.330Z,19.73
2018-04-15T18:17:28.916Z,21.60
2018-04-15T18:19:56.479Z,22.00
2018-04-15T18:22:24.036Z,21.60
2018-04-15T18:24:52.353Z,19.60
2018-04-15T18:27:19.909Z,18.67
2018-04-15T18:29:47.524Z,18.63
2018-04-15T18:32:15.072Z,17.93
2018-04-15T18:34:43.413Z,19.13
2018-04-15T18:37:10.972Z,17.67
2018-04-15T18:39:38.528Z,14.87
2018-04-15T18:42:06.118Z,17.63
2018-04-15T18:44:33.665Z,16.47
2018-04-15T18:47:01.218Z,17.60
2018-04-15T18:49:28.777Z,18.50
2018-04-15T18:51:57.120Z,19.07
2018-04-15T18:54:25.628Z,15.97
2018-04-15T18:56:53.180Z,16.60
2018-04-15T18:59:20.732Z,21.07
2018-04-15T19:01:48.289Z,18.33
2018-04-15T19:04:15.840Z,18.27
2018-04-15T19:06:43.393Z,18.00
2018-04-15T19:09:10.944Z,17.73
2018-04-15T19:11:38.493Z,14.67
2018-04-15T19:14:06.048Z,16.83
2018-04-15T19:16:33.628Z,15.47
2018-04-15T19:19:01.216Z,16.63
2018-04-15T19:21:28.800Z,15.37
2018-04-15T19:23:57.120Z,17.30
2018-04-15T19:26:24.701Z,17.90
2018-04-15T19:28:52.265Z,17.33
2018-04-15T19:31:19.877Z,17.93
2018-04-15T19:33:48.180Z,18.47
2018-04-15T19:36:15.736Z,18.23
2018-04-15T19:38:43.284Z,16.30
2018-04-15T19:41:10.882Z,17.30
2018-04-15T19:43:38.424Z,18.50
2018-04-15T19:46:06.012Z,20.17
2018-04-15T19:48:33.589Z,18.33
2018-04-15T19:51:01.172Z,19.37
2018-04-15T19:53:28.727Z,21.73
2018-04-15T19:55:56.284Z,21.17
2018-04-15T19:58:24.685Z,21.60
2018-04-15T20:00:52.311Z,22.13
2018-04-15T20:03:19.921Z,22.47
2018-04-15T20:05:47.477Z,22.10
2018-04-15T20:08:15.933Z,21.57
2018-04-15T20:10:44.421Z,21.77
2018-04-15T20:13:11.972Z,27.47
2018-04-15T20:15:39.544Z,22.40
2018-04-15T20:18:07.108Z,23.63
2018-04-15T20:20:34.660Z,25.23
2018-04-15T20:23:02.820Z,21.53
2018-04-15T20:25:30.413Z,23.47
2018-04-15T20:27:57.964Z,23.47
2018-04-15T20:30:25.541Z,19.47
2018-04-15T20:32:53.884Z,23.97
2018-04-15T20:35:21.469Z,21.47
2018-04-15T20:37:49.020Z,23.23
2018-04-15T20:40:16.576Z,21.50
2018-04-15T20:42:44.131Z,24.03
2018-04-15T20:45:11.690Z,22.57
2018-04-15T20:47:39.264Z,22.47
2018-04-15T20:50:07.580Z,23.93
2018-04-15T20:52:35.141Z,25.47
2018-04-15T20:55:02.693Z,25.07
2018-04-15T20:57:30.253Z,23.80
2018-04-15T20:59:57.824Z,27.33
2018-04-15T21:02:25.376Z,25.10
2018-04-15T21:04:52.933Z,27.97
2018-04-15T21:07:20.490Z,29.30
2018-04-15T21:09:48.052Z,32.05
2018-04-15T21:12:16.426Z,26.90
2018-04-15T21:14:43.993Z,31.37
2018-04-15T21:17:11.552Z,30.33
2018-04-15T21:19:39.120Z,33.97
2018-04-15T21:22:07.184Z,29.63
2018-04-15T21:24:34.785Z,35.13
2018-04-15T21:27:03.104Z,31.60
2018-04-15T21:29:30.657Z,31.80
2018-04-15T21:31:58.212Z,34.23
2018-04-15T21:34:25.785Z,30.40
2018-04-15T21:36:53.368Z,40.47
2018-04-15T21:39:20.945Z,39.50
2018-04-15T21:41:48.504Z,38.70
2018-04-15T21:44:16.825Z,44.10
2018-04-15T21:46:44.380Z,42.13
2018-04-15T21:49:11.964Z,43.47
2018-04-15T21:51:39.533Z,39.27
2018-04-15T21:54:07.095Z,37.60
2018-04-15T21:56:34.665Z,44.93
2018-04-15T21:59:02.224Z,45.03
2018-04-15T22:01:30.589Z,55.07
2018-04-15T22:03:58.177Z,54.27
2018-04-15T22:06:25.728Z,61.87
2018-04-15T22:08:53.281Z,46.57
2018-04-15T22:11:33.453Z,60.40
2018-04-15T22:14:01.032Z,57.20
2018-04-15T22:16:28.592Z,54.67
2018-04-15T22:18:56.164Z,66.40
2018-04-15T22:21:24.488Z,55.83
2018-04-15T22:23:52.095Z,59.23
2018-04-15T22:26:19.646Z,63.00
2018-04-15T22:28:47.205Z,63.93
2018-04-15T22:31:14.780Z,58.70
2018-04-15T22:33:42.332Z,70.83
2018-04-15T22:36:09.880Z,59.20
2018-04-15T22:38:37.429Z,58.43
2018-04-15T22:41:04.987Z,63.53
2018-04-15T22:43:32.565Z,55.70
2018-04-15T22:46:00.121Z,54.63
2018-04-15T22:48:33.376Z,62.03
2018-04-15T22:51:00.928Z,63.90
2018-04-15T22:53:28.481Z,54.87
2018-04-15T22:55:56.037Z,61.77
2018-04-15T22:58:23.602Z,54.97
2018-04-15T23:00:51.199Z,52.97
2018-04-15T23:03:18.766Z,56.03
2018-04-15T23:05:46.330Z,63.50
2018-04-15T23:08:13.911Z,56.20
2018-04-15T23:10:41.482Z,59.20
2018-04-15T23:13:09.848Z,58.17
2018-04-15T23:15:38.199Z,62.40
2018-04-15T23:18:05.771Z,57.20
2018-04-15T23:20:33.342Z,67.60
2018-04-15T23:23:00.906Z,60.17
2018-04-15T23:25:29.265Z,61.57
2018-04-15T23:27:56.839Z,58.47
2018-04-15T23:30:25.174Z,60.63
2018-04-15T23:32:52.738Z,56.13
2018-04-15T23:35:20.310Z,56.43
2018-04-15T23:37:47.906Z,56.33
2018-04-15T23:40:15.471Z,56.97
2018-04-15T23:42:43.045Z,59.40
2018-04-15T23:45:10.615Z,54.77
2018-04-15T23:47:38.182Z,57.93
2018-04-15T23:50:05.774Z,55.27
2018-04-15T23:52:34.122Z,62.73
2018-04-15T23:55:01.686Z,53.20
2018-04-15T23:57:29.256Z,58.47
2018-04-15T23:59:56.846Z,58.00
